الصفحة الرئيسية
METAR-TAF:

METAR-TAF

مطار :

مطار نوفوسيبيرسك

نوفوسيبيرسك, روسيا

دائرة عرض: 55-01N, خط طول: 082-38E, ارتفاع: 111 متر

مراقبة الطقس الحالي

تاريخ ووقت الإصدار 36 دقيقة قبل الساعة 03:30UTC
ريح 2 عقدة من الشمال
درجة الحرارة -20°درجة مئوية
الرطوبة 84%
ضغط 1037 hPa
الرؤية: 7000 متر

METAR: UNNT 290330Z 01001MPS 7000 NSC M20/M22 Q1037 R25/810160 R16/810160 NOSIG RMK QFE767/1023

زمن: 11:06 (04:06 UTC)

توقعات

تاريخ ووقت الإصدار 2ساعات و 6 دقيقة قبل الساعة 02:00UTC
التوقعات صالحة من29 الساعة 03 UTC إلى 30 الساعة 03 UTC
ريح 6 عقدة من الغرب/الشمال الغربي
الرؤية: 8000 متر
مؤقت
من 29 الساعة 03 UTC إلى 29 الساعة 07 UTC
الرؤية: 3000 متر
غيوم متفرقة على ارتفاع 1000 قدم
غشاء, دخان

TAF: UNNT 290200Z 2903/3003 30003MPS 8000 NSC TEMPO 2903/2907 3000 BR FU SCT010

أرصاد الطقس والتوقعات من أكثر من 4000 مطار (تقارير الطقس للمطار METAR والتنبؤ بالطقس بالمطارTAF).

المحطات المتاحة هي النقط الصفراء والحمراء على الخريطة.

حرك المؤشر فوق النقطة لمعرفة اسم المحطة.

ثم انقر لمعرفة أرصاد وتوقعات الطقس.

لتغيير الخارطة: اضغط على الأزرار الخضراء مع رمز الصليب الأسود للتكبير. على الزر الأخضر مع شرطة للتصغير، أو على الأسهم الخضراء للخرائط المجاورة.


METAR-TAF: